Time;durP1;ratioP1;P1;durP2;ratioP2;P2;SDS_P1;SDS_P2;PMS_P1;PMS_P2;Temp;Humidity;BMP_temperature;BMP_pressure;BME280_temperature;BME280_humidity;BME280_pressure;Samples;Min_cycle;Max_cycle;Signal;HPM_P1;HPM_P2
2023/06/02 00:02:21;;;;;;;3.00;1.70;;;9.90;99.90;9.20;100356;;;;588116;240;25215;-79
2023/06/02 00:04:49;;;;;;;4.73;1.83;;;9.90;99.90;9.20;100358;;;;588817;235;24072;-77
2023/06/02 00:07:16;;;;;;;4.27;1.20;;;9.90;99.90;9.20;100356;;;;588243;240;24094;-74
2023/06/02 00:09:47;;;;;;;8.57;2.53;;;9.90;99.90;9.20;100357;;;;589504;240;24107;-76
2023/06/02 00:12:12;;;;;;;7.03;1.97;;;9.90;99.90;9.20;100347;;;;588913;240;24055;-76
2023/06/02 00:14:43;;;;;;;3.53;1.23;;;9.90;99.90;9.20;100339;;;;589671;240;24214;-77
2023/06/02 00:17:11;;;;;;;6.47;2.37;;;9.90;99.90;9.20;100350;;;;588914;240;24040;-78
2023/06/02 00:19:39;;;;;;;6.40;1.80;;;9.90;99.90;9.20;100340;;;;589838;239;24045;-78
2023/06/02 00:22:04;;;;;;;4.47;1.83;;;9.90;99.90;9.20;100353;;;;589499;239;24111;-79
2023/06/02 00:24:32;;;;;;;5.87;2.33;;;9.90;99.90;9.20;100345;;;;596358;240;24040;-78
2023/06/02 00:27:03;;;;;;;3.50;1.37;;;9.70;99.90;9.10;100354;;;;589343;240;24063;-79
2023/06/02 00:29:28;;;;;;;9.00;2.50;;;9.50;99.90;8.90;100345;;;;589377;240;24057;-73
2023/06/02 00:31:56;;;;;;;3.87;1.87;;;9.30;99.90;8.70;100353;;;;593010;240;24077;-80
2023/06/02 00:34:24;;;;;;;3.43;1.43;;;9.30;99.90;8.60;100364;;;;589647;240;24172;-76
2023/06/02 00:36:52;;;;;;;7.17;1.87;;;9.00;99.90;8.50;100350;;;;589709;240;24086;-77
2023/06/02 00:39:20;;;;;;;4.63;2.07;;;8.90;99.90;8.30;100364;;;;589966;240;24055;-75
2023/06/02 00:41:51;;;;;;;6.77;2.30;;;8.80;99.90;8.20;100347;;;;589756;240;24031;-74
2023/06/02 00:44:16;;;;;;;5.60;2.30;;;8.80;99.90;8.10;100355;;;;589856;240;24073;-76
2023/06/02 00:46:48;;;;;;;3.30;1.50;;;8.70;99.90;8.10;100345;;;;589746;240;24047;-79
2023/06/02 00:49:13;;;;;;;9.57;3.17;;;8.60;99.90;8.00;100354;;;;589108;240;24051;-78
2023/06/02 00:51:45;;;;;;;6.93;2.20;;;8.60;99.90;8.00;100347;;;;589367;240;24236;-74
2023/06/02 00:54:09;;;;;;;6.47;2.60;;;8.60;99.90;8.00;100346;;;;584568;240;24059;-77
2023/06/02 00:56:39;;;;;;;11.43;2.27;;;8.60;99.90;8.00;100333;;;;589049;240;24129;-74
2023/06/02 00:59:06;;;;;;;5.80;1.97;;;8.60;99.90;8.00;100340;;;;588935;240;24116;-75
2023/06/02 01:01:37;;;;;;;4.70;2.27;;;8.60;99.90;8.00;100338;;;;588818;240;24039;-76
2023/06/02 01:04:04;;;;;;;7.30;2.20;;;8.60;99.90;8.00;100339;;;;588966;240;24078;-77
2023/06/02 01:06:31;;;;;;;9.27;2.00;;;8.60;99.90;8.00;100343;;;;588802;240;24073;-80
2023/06/02 01:08:57;;;;;;;9.23;3.07;;;8.70;99.90;8.10;100356;;;;588656;240;24120;-79
2023/06/02 01:11:26;;;;;;;7.20;2.57;;;8.60;99.90;8.10;100343;;;;588772;240;24006;-79
2023/06/02 01:13:53;;;;;;;6.13;2.27;;;8.80;99.90;8.20;100349;;;;589376;240;24037;-78
2023/06/02 01:16:24;;;;;;;15.73;4.20;;;8.80;99.90;8.20;100340;;;;588986;240;24050;-79
2023/06/02 01:18:51;;;;;;;7.30;2.23;;;8.90;99.90;8.20;100345;;;;585840;240;24105;-76
2023/06/02 01:21:22;;;;;;;4.73;1.97;;;8.90;99.90;8.30;100352;;;;588891;240;24107;-77
2023/06/02 01:23:50;;;;;;;4.37;2.23;;;8.90;99.90;8.30;100348;;;;588317;240;24047;-75
2023/06/02 01:26:17;;;;;;;3.53;1.63;;;9.00;99.90;8.30;100344;;;;589202;240;24159;-76
2023/06/02 01:28:49;;;;;;;3.90;2.23;;;9.00;99.90;8.30;100344;;;;588708;240;24052;-75
2023/06/02 01:31:18;;;;;;;2.67;1.73;;;9.00;99.90;8.40;100345;;;;590660;239;24114;-75
2023/06/02 01:34:16;;;;;;;7.60;2.47;;;9.10;99.90;8.40;100338;;;;590410;239;24045;-77
2023/06/02 01:36:44;;;;;;;5.37;1.90;;;9.10;99.90;8.50;100343;;;;593736;240;24057;-76
2023/06/02 01:39:16;;;;;;;6.00;2.13;;;9.20;99.90;8.50;100350;;;;589047;240;24089;-76
2023/06/02 01:41:41;;;;;;;3.63;2.10;;;9.20;99.90;8.60;100353;;;;590037;240;24060;-76
2023/06/02 01:44:11;;;;;;;3.20;1.63;;;9.30;99.90;8.60;100363;;;;590481;240;24035;-75
2023/06/02 01:46:37;;;;;;;18.10;3.80;;;9.40;99.90;8.60;100348;;;;590161;240;24042;-77
2023/06/02 01:49:04;;;;;;;7.17;2.40;;;9.40;99.90;8.70;100352;;;;590282;240;24039;-74
2023/06/02 01:51:32;;;;;;;6.63;2.23;;;9.40;99.90;8.70;100345;;;;590324;240;24057;-77
2023/06/02 01:54:01;;;;;;;2.50;1.60;;;9.40;99.90;8.70;100353;;;;590137;240;24042;-75
2023/06/02 01:56:32;;;;;;;8.30;2.53;;;9.40;99.90;8.70;100348;;;;589942;240;24053;-76
2023/06/02 01:59:00;;;;;;;4.87;1.57;;;9.40;99.90;8.80;100346;;;;589650;240;24048;-76
2023/06/02 02:01:30;;;;;;;1.97;1.20;;;9.50;99.90;8.80;100355;;;;589754;240;24078;-75
2023/06/02 02:03:54;;;;;;;5.00;1.37;;;9.50;99.90;8.80;100354;;;;589534;238;24081;-79
2023/06/02 02:06:34;;;;;;;3.20;1.50;;;9.50;99.90;8.80;100365;;;;589827;240;24068;-75
2023/06/02 02:08:54;;;;;;;5.30;1.93;;;9.50;99.90;8.80;100351;;;;588751;240;24051;-76
2023/06/02 02:11:23;;;;;;;10.63;1.80;;;9.50;99.90;8.80;100364;;;;589362;240;24049;-81
2023/06/02 02:13:51;;;;;;;6.03;2.30;;;9.50;99.90;8.80;100374;;;;590103;240;24046;-75
2023/06/02 02:16:22;;;;;;;7.07;1.70;;;9.50;99.90;8.80;100377;;;;590053;240;24028;-75
2023/06/02 02:18:50;;;;;;;9.03;1.60;;;9.60;99.90;8.80;100380;;;;589795;240;24007;-81
2023/06/02 02:21:15;;;;;;;6.63;2.30;;;9.60;99.90;8.80;100382;;;;588602;240;24041;-80
2023/06/02 02:23:44;;;;;;;4.03;2.27;;;9.50;99.90;8.80;100385;;;;588793;240;24087;-76
2023/06/02 02:26:12;;;;;;;4.23;1.93;;;9.60;99.90;8.90;100387;;;;589093;240;24044;-77
2023/06/02 02:28:43;;;;;;;8.27;1.77;;;9.50;99.90;8.90;100390;;;;588873;240;24058;-76
2023/06/02 02:31:09;;;;;;;4.63;1.93;;;9.60;99.90;8.90;100383;;;;588136;240;24037;-76
2023/06/02 02:33:38;;;;;;;2.97;1.47;;;9.60;99.90;8.90;100378;;;;588941;240;24025;-76
2023/06/02 02:36:08;;;;;;;1.73;1.27;;;9.60;99.90;8.90;100399;;;;589734;240;24036;-76
2023/06/02 02:38:35;;;;;;;12.10;3.07;;;9.60;99.90;8.90;100392;;;;588434;240;25153;-75
2023/06/02 02:41:05;;;;;;;15.37;4.07;;;9.60;99.90;8.90;100389;;;;589876;238;24123;-75
2023/06/02 02:43:33;;;;;;;5.87;2.50;;;9.60;99.90;8.90;100389;;;;591247;239;24161;-79
2023/06/02 02:46:01;;;;;;;4.67;2.00;;;9.60;99.90;8.90;100387;;;;590238;240;24050;-80
2023/06/02 02:48:29;;;;;;;6.73;2.43;;;9.60;99.90;8.90;100387;;;;590433;240;24048;-76
2023/06/02 02:50:59;;;;;;;16.10;4.63;;;9.60;99.90;8.90;100387;;;;590813;240;24102;-75
2023/06/02 02:53:31;;;;;;;4.30;2.03;;;9.60;99.90;8.90;100396;;;;590594;240;24020;-79
2023/06/02 02:55:56;;;;;;;7.27;2.73;;;9.60;99.90;8.90;100392;;;;590242;240;24015;-75
2023/06/02 02:58:26;;;;;;;2.73;1.47;;;9.60;99.90;8.90;100385;;;;590380;240;24053;-74
2023/06/02 03:00:51;;;;;;;8.83;2.10;;;9.60;99.90;8.90;100415;;;;589779;240;24054;-78
2023/06/02 03:03:21;;;;;;;5.13;1.60;;;9.60;99.90;8.90;100410;;;;589816;240;24065;-75
2023/06/02 03:05:48;;;;;;;2.73;1.57;;;9.60;99.90;8.90;100430;;;;589877;240;24157;-78
2023/06/02 03:08:17;;;;;;;4.27;2.03;;;9.60;99.90;8.90;100418;;;;584530;240;34960;-79
2023/06/02 03:10:43;;;;;;;4.12;1.70;;;9.60;99.90;8.90;100421;;;;584707;240;45875;-79
2023/06/02 03:13:14;;;;;;;14.60;1.80;;;9.70;99.90;8.90;100410;;;;589232;240;24097;-81
2023/06/02 03:15:42;;;;;;;3.77;1.80;;;9.60;99.90;8.90;100412;;;;588703;240;24028;-75
2023/06/02 03:18:08;;;;;;;4.80;1.50;;;9.70;99.90;9.00;100404;;;;588419;240;24035;-75
2023/06/02 03:20:36;;;;;;;1.93;1.10;;;9.70;99.90;9.00;100417;;;;588047;240;25143;-76
2023/06/02 03:23:03;;;;;;;5.30;1.93;;;9.70;99.90;9.00;100418;;;;588903;240;24028;-76
2023/06/02 03:25:30;;;;;;;8.20;2.60;;;9.70;99.90;9.00;100412;;;;588874;240;24054;-80
2023/06/02 03:28:02;;;;;;;6.20;2.00;;;9.70;99.90;9.00;100424;;;;589391;240;24036;-76
2023/06/02 03:30:30;;;;;;;4.63;1.13;;;9.70;99.90;9.00;100421;;;;589105;240;24115;-76
2023/06/02 03:32:54;;;;;;;2.70;1.17;;;9.70;99.90;9.00;100423;;;;589302;240;24156;-83
2023/06/02 03:35:22;;;;;;;4.10;1.70;;;9.70;99.90;9.00;100424;;;;589498;240;24035;-77
2023/06/02 03:37:50;;;;;;;4.90;2.07;;;9.70;99.90;9.00;100418;;;;589293;240;24051;-76
2023/06/02 03:40:18;;;;;;;2.77;1.70;;;9.80;99.90;9.10;100424;;;;589666;240;24020;-76
2023/06/02 03:42:46;;;;;;;5.93;1.67;;;9.80;99.90;9.10;100425;;;;589694;240;24063;-80
2023/06/02 03:45:15;;;;;;;3.30;1.40;;;9.80;99.90;9.10;100419;;;;589427;240;24057;-76
2023/06/02 03:47:43;;;;;;;2.57;1.40;;;9.80;99.90;9.10;100434;;;;589356;240;24020;-76
2023/06/02 03:50:11;;;;;;;3.70;1.63;;;9.90;99.90;9.20;100437;;;;584869;240;24092;-80
2023/06/02 03:52:42;;;;;;;3.40;1.53;;;9.90;99.90;9.20;100425;;;;589071;238;24111;-76
2023/06/02 03:55:11;;;;;;;4.93;1.97;;;10.00;99.90;9.20;100438;;;;590350;239;24023;-75
2023/06/02 03:57:35;;;;;;;2.10;1.33;;;9.90;99.90;9.30;100428;;;;589865;240;24074;-74
2023/06/02 04:00:04;;;;;;;7.50;2.57;;;10.00;99.90;9.40;100440;;;;589664;240;24047;-77
2023/06/02 04:02:31;;;;;;;1.97;1.17;;;10.00;99.90;9.40;100446;;;;586476;240;24036;-77
2023/06/02 04:04:59;;;;;;;1.50;1.07;;;10.10;99.90;9.40;100453;;;;588984;240;24122;-75
2023/06/02 04:07:26;;;;;;;7.67;2.43;;;10.10;99.90;9.40;100450;;;;588839;240;24053;-75
2023/06/02 04:09:55;;;;;;;2.77;1.43;;;10.10;99.90;9.40;100465;;;;589300;240;24036;-75
2023/06/02 04:12:23;;;;;;;3.50;1.37;;;10.10;99.90;9.40;100456;;;;589333;240;24051;-76
2023/06/02 04:14:51;;;;;;;3.37;1.57;;;10.10;99.90;9.50;100469;;;;588991;240;24021;-75
2023/06/02 04:17:19;;;;;;;2.40;1.33;;;10.20;99.90;9.50;100463;;;;588783;240;24054;-75
2023/06/02 04:19:47;;;;;;;6.53;1.80;;;10.20;99.90;9.50;100461;;;;589688;240;24076;-80
2023/06/02 04:22:17;;;;;;;4.80;1.73;;;10.20;99.90;9.50;100472;;;;588979;240;24047;-75
2023/06/02 04:24:49;;;;;;;7.90;2.60;;;10.30;99.90;9.60;100484;;;;589172;240;24070;-79
2023/06/02 04:27:15;;;;;;;2.47;1.00;;;10.30;99.90;9.70;100476;;;;589625;240;24042;-77
2023/06/02 04:29:43;;;;;;;5.10;1.73;;;10.30;99.90;9.70;100483;;;;589571;240;24058;-80
2023/06/02 04:32:11;;;;;;;8.77;1.90;;;10.30;99.90;9.70;100475;;;;589774;240;24018;-80
2023/06/02 04:34:39;;;;;;;5.20;1.60;;;10.40;99.90;9.80;100484;;;;589604;240;24035;-76
2023/06/02 04:37:07;;;;;;;9.60;2.57;;;10.50;99.90;9.90;100477;;;;589798;240;24101;-76
2023/06/02 04:39:41;;;;;;;6.67;1.63;;;10.50;99.90;9.90;100487;;;;589836;240;24157;-76
2023/06/02 04:42:06;;;;;;;4.07;1.37;;;10.60;99.90;9.90;100501;;;;588759;240;24111;-76
2023/06/02 04:44:34;;;;;;;3.80;1.40;;;10.60;99.90;10.00;100494;;;;589576;240;24106;-79
2023/06/02 04:47:02;;;;;;;10.93;2.73;;;10.60;99.90;10.10;100510;;;;589066;240;24064;-78
2023/06/02 04:49:30;;;;;;;6.80;2.47;;;10.70;99.90;10.30;100505;;;;589430;240;24041;-81
2023/06/02 04:51:58;;;;;;;3.40;1.30;;;11.10;99.90;10.40;100497;;;;589876;240;24025;-78
2023/06/02 04:54:25;;;;;;;3.93;1.20;;;11.10;99.90;10.50;100494;;;;588975;238;24185;-79
2023/06/02 04:56:54;;;;;;;8.67;2.90;;;11.20;99.90;10.60;100524;;;;589209;240;24028;-79
2023/06/02 04:59:23;;;;;;;8.10;2.30;;;11.30;99.90;10.70;100504;;;;589430;240;24132;-76
2023/06/02 05:01:51;;;;;;;7.70;2.07;;;11.40;99.90;12.30;100499;;;;589470;240;24062;-78
2023/06/02 05:04:21;;;;;;;5.97;1.80;;;12.70;99.90;13.40;100517;;;;589687;238;24027;-76
2023/06/02 05:06:47;;;;;;;2.53;1.20;;;14.00;99.90;14.30;100523;;;;590746;239;24038;-77
2023/06/02 05:09:15;;;;;;;3.17;1.47;;;14.90;99.90;14.30;100517;;;;590428;240;24118;-76
2023/06/02 05:11:42;;;;;;;4.63;2.00;;;15.20;99.90;14.60;100530;;;;590581;240;24018;-75
2023/06/02 05:14:10;;;;;;;2.73;1.30;;;15.40;99.90;14.90;100536;;;;590175;240;24070;-75
2023/06/02 05:16:39;;;;;;;7.47;2.03;;;15.70;99.90;15.00;100522;;;;589616;240;24060;-75
2023/06/02 05:19:07;;;;;;;12.43;1.87;;;15.90;99.90;14.80;100529;;;;589091;240;24100;-75
2023/06/02 05:21:35;;;;;;;17.50;1.90;;;15.70;99.90;14.90;100538;;;;588886;240;24033;-75
2023/06/02 05:24:03;;;;;;;5.63;1.50;;;15.70;99.90;15.50;100539;;;;588556;240;24045;-75
2023/06/02 05:26:31;;;;;;;3.80;1.43;;;16.10;99.90;16.60;100550;;;;588596;240;24048;-75
2023/06/02 05:29:03;;;;;;;2.43;1.17;;;17.10;99.50;17.60;100546;;;;588608;240;24052;-78
2023/06/02 05:31:27;;;;;;;3.07;1.13;;;18.30;95.00;17.90;100565;;;;587844;240;24082;-74
2023/06/02 05:33:55;;;;;;;6.50;1.83;;;18.70;91.60;17.60;100564;;;;588724;240;24032;-75
2023/06/02 05:36:23;;;;;;;5.27;1.70;;;18.50;88.60;17.50;100557;;;;588774;240;24018;-74
2023/06/02 05:38:54;;;;;;;2.67;1.33;;;18.40;87.90;18.90;100558;;;;589004;240;23112;-74
2023/06/02 05:41:19;;;;;;;7.37;2.00;;;19.40;86.30;20.60;100564;;;;588445;240;23119;-76
2023/06/02 05:43:47;;;;;;;3.10;1.13;;;21.10;81.50;22.20;100576;;;;588341;240;24127;-75
2023/06/02 05:46:18;;;;;;;1.67;1.10;;;22.70;72.00;23.10;100562;;;;588470;240;24039;-76
2023/06/02 05:48:43;;;;;;;1.37;0.93;;;23.80;65.80;24.10;100586;;;;587862;240;24135;-74
2023/06/02 05:51:10;;;;;;;6.77;2.20;;;24.80;62.00;25.00;100586;;;;588400;240;24061;-75
2023/06/02 05:53:38;;;;;;;6.47;1.70;;;25.70;56.60;25.60;100588;;;;588301;240;23051;-77
2023/06/02 05:56:10;;;;;;;5.53;1.33;;;26.40;53.50;25.50;100603;;;;588951;240;24069;-77
2023/06/02 05:58:38;;;;;;;10.03;3.10;;;26.60;51.70;25.80;100606;;;;588409;240;23048;-78
2023/06/02 06:01:08;;;;;;;3.50;1.00;;;26.80;49.90;26.20;100601;;;;589020;240;23045;-80
2023/06/02 06:03:33;;;;;;;1.00;1.00;;;27.10;48.20;26.30;100615;;;;588442;240;23062;-78
2023/06/02 06:06:02;;;;;;;3.37;1.63;;;27.80;47.80;27.10;100611;;;;588202;240;24069;-75
2023/06/02 06:08:30;;;;;;;11.83;1.70;;;27.80;47.70;27.90;100612;;;;588106;240;24130;-74
2023/06/02 06:10:58;;;;;;;1.58;1.12;;;28.50;47.70;28.60;100617;;;;588157;240;24078;-74
2023/06/02 06:13:26;;;;;;;12.25;2.60;;;29.30;45.50;29.20;100611;;;;588557;240;24069;-75
2023/06/02 06:15:54;;;;;;;7.93;1.80;;;29.90;44.10;29.60;100629;;;;588847;238;23109;-77
2023/06/02 06:18:21;;;;;;;4.55;0.80;;;30.40;43.10;29.70;100648;;;;589796;239;23060;-74
2023/06/02 06:20:49;;;;;;;6.25;1.40;;;30.50;42.80;29.50;100639;;;;589538;240;23045;-75
2023/06/02 06:23:17;;;;;;;7.55;2.15;;;30.50;41.50;29.70;100633;;;;589460;240;23070;-75
2023/06/02 06:25:45;;;;;;;10.13;1.92;;;30.50;40.80;29.60;100642;;;;589584;240;24122;-80
2023/06/02 06:28:16;;;;;;;4.07;1.83;;;30.40;41.00;30.20;100640;;;;588835;240;23035;-78
2023/06/02 06:30:41;;;;;;;12.77;2.47;;;30.90;40.80;30.10;100650;;;;588549;240;23038;-78
2023/06/02 06:33:09;;;;;;;13.30;3.17;;;30.90;39.80;30.00;100659;;;;588893;240;23031;-80
2023/06/02 06:35:41;;;;;;;6.28;1.62;;;30.80;39.20;29.90;100655;;;;588600;240;24076;-76
2023/06/02 06:38:05;;;;;;;5.60;1.52;;;30.70;39.80;30.20;100655;;;;588579;240;24045;-80
2023/06/02 06:40:33;;;;;;;3.83;1.35;;;30.90;39.30;30.30;100663;;;;588773;240;23035;-79
2023/06/02 06:43:01;;;;;;;4.15;1.30;;;31.00;38.60;30.70;100670;;;;588920;240;24076;-75
2023/06/02 06:45:29;;;;;;;2.83;1.27;;;31.30;38.50;30.90;100666;;;;588346;235;23046;-75
2023/06/02 06:47:56;;;;;;;8.13;1.35;;;31.50;38.00;30.90;100678;;;;588495;240;23053;-79
2023/06/02 06:50:24;;;;;;;7.47;2.12;;;31.60;37.80;30.70;100681;;;;588630;240;23093;-82
2023/06/02 06:52:52;;;;;;;1.42;1.20;;;31.60;37.20;30.70;100684;;;;588331;240;23043;-75
2023/06/02 06:55:20;;;;;;;3.28;1.37;;;31.60;37.00;31.30;100696;;;;588462;240;23039;-79
2023/06/02 06:57:49;;;;;;;4.22;1.20;;;32.30;36.80;31.70;100699;;;;588544;240;24094;-77
2023/06/02 07:00:18;;;;;;;4.28;1.00;;;32.30;36.40;31.50;100699;;;;588823;240;24077;-75
2023/06/02 07:02:48;;;;;;;0.82;0.82;;;32.30;36.40;31.70;100708;;;;588837;240;23026;-74
2023/06/02 07:05:13;;;;;;;9.63;2.00;;;32.30;36.70;31.70;100708;;;;588934;240;23116;-75
2023/06/02 07:07:45;;;;;;;1.90;1.15;;;32.30;35.80;31.40;100719;;;;586176;239;23049;-76
2023/06/02 07:10:10;;;;;;;9.10;2.15;;;32.10;36.80;31.70;100731;;;;589081;240;23194;-76
2023/06/02 07:12:37;;;;;;;2.60;1.30;;;32.20;35.00;31.70;100732;;;;586753;240;23035;-76
2023/06/02 07:15:05;;;;;;;4.12;1.45;;;32.30;36.30;31.40;100728;;;;589975;240;23025;-74
2023/06/02 07:17:33;;;;;;;3.00;1.20;;;32.10;36.70;31.30;100745;;;;589363;240;23042;-75
2023/06/02 07:20:02;;;;;;;2.08;1.10;;;32.00;36.20;31.00;100744;;;;589668;240;23039;-76
2023/06/02 07:22:30;;;;;;;4.75;1.40;;;31.70;37.00;31.10;100740;;;;589595;235;23075;-80
2023/06/02 07:25:01;;;;;;;8.27;2.75;;;31.60;36.90;31.40;100733;;;;589634;240;23048;-76
2023/06/02 07:27:30;;;;;;;2.72;1.25;;;31.90;37.10;31.60;100741;;;;589484;238;23046;-78
2023/06/02 07:29:54;;;;;;;6.35;2.03;;;32.20;36.90;31.50;100741;;;;590564;239;23072;-79
2023/06/02 07:32:23;;;;;;;17.77;2.25;;;32.40;36.20;31.80;100763;;;;590083;240;24079;-76
2023/06/02 07:34:50;;;;;;;4.03;1.50;;;32.40;36.20;31.60;100739;;;;589861;240;23064;-77
2023/06/02 07:37:18;;;;;;;8.60;2.00;;;32.30;35.40;31.00;100772;;;;589810;240;24028;-75
2023/06/02 07:39:46;;;;;;;5.30;1.67;;;31.90;35.80;31.00;100751;;;;589365;240;23033;-80
2023/06/02 07:42:14;;;;;;;2.17;1.48;;;31.70;36.60;31.50;100761;;;;589496;240;23035;-80
2023/06/02 07:44:43;;;;;;;1.77;1.17;;;32.70;35.50;32.30;100760;;;;589789;240;23044;-77
2023/06/02 07:47:11;;;;;;;4.75;1.50;;;32.70;35.50;33.10;100770;;;;589052;240;23059;-79
2023/06/02 07:49:43;;;;;;;2.67;0.85;;;33.40;36.40;33.10;100762;;;;589208;240;24125;-77
2023/06/02 07:52:11;;;;;;;3.30;0.90;;;33.80;35.50;32.90;100769;;;;588312;240;23038;-76
2023/06/02 07:54:39;;;;;;;1.20;0.60;;;33.60;35.00;32.60;100775;;;;588730;240;24084;-78
2023/06/02 07:57:06;;;;;;;9.18;1.67;;;33.40;35.50;32.60;100799;;;;587146;240;23056;-77
2023/06/02 07:59:31;;;;;;;4.28;0.70;;;33.30;35.90;32.20;100794;;;;589413;240;23039;-76
2023/06/02 08:01:59;;;;;;;3.00;1.20;;;33.00;35.80;32.30;100789;;;;589149;240;23090;-77
2023/06/02 08:04:27;;;;;;;3.37;1.27;;;32.90;36.40;31.80;100795;;;;588675;240;23051;-80
2023/06/02 08:06:56;;;;;;;2.22;1.00;;;31.80;36.20;30.80;100791;;;;588862;240;23041;-76
2023/06/02 08:09:25;;;;;;;0.50;0.50;;;31.60;36.50;30.80;100808;;;;588676;240;23066;-75
2023/06/02 08:11:53;;;;;;;2.55;0.90;;;31.90;37.30;31.50;100813;;;;588918;240;23098;-76
2023/06/02 08:14:22;;;;;;;11.70;1.48;;;32.20;36.30;31.80;100802;;;;589357;240;23064;-77
2023/06/02 08:16:52;;;;;;;5.97;1.05;;;32.30;35.20;31.70;100805;;;;589425;240;23038;-79
2023/06/02 08:19:20;;;;;;;1.23;0.62;;;32.30;35.10;31.90;100799;;;;588821;240;23035;-78
2023/06/02 08:21:46;;;;;;;2.03;0.93;;;32.50;36.30;32.50;100813;;;;588771;240;23043;-76
2023/06/02 08:24:14;;;;;;;2.62;0.45;;;33.00;36.00;32.70;100811;;;;588709;240;23031;-77
2023/06/02 08:26:45;;;;;;;1.50;0.73;;;33.20;35.50;32.90;100810;;;;588226;240;25114;-78
2023/06/02 08:29:13;;;;;;;9.43;1.25;;;33.50;34.90;32.60;100807;;;;588556;240;23040;-79
2023/06/02 08:31:39;;;;;;;1.37;0.85;;;33.40;35.00;32.70;100828;;;;588209;240;23135;-75
2023/06/02 08:34:10;;;;;;;1.08;0.52;;;33.50;34.60;32.70;100815;;;;588586;240;23020;-77
2023/06/02 08:36:34;;;;;;;1.30;0.70;;;33.40;35.40;32.40;100824;;;;583040;240;34914;-80
2023/06/02 08:39:06;;;;;;;3.03;0.60;;;33.40;35.30;32.40;100815;;;;588871;238;23059;-76
2023/06/02 08:41:33;;;;;;;5.10;1.33;;;33.30;34.50;32.40;100834;;;;590006;235;23039;-77
2023/06/02 08:43:58;;;;;;;4.70;1.20;;;33.40;35.20;32.50;100839;;;;589047;240;23041;-79
2023/06/02 08:46:26;;;;;;;1.62;1.00;;;33.40;35.60;32.80;100836;;;;588995;240;23043;-76
2023/06/02 08:48:58;;;;;;;1.05;0.80;;;33.50;35.10;33.20;100843;;;;588871;240;23052;-77
2023/06/02 08:51:25;;;;;;;2.65;0.93;;;33.90;36.00;33.30;100844;;;;588321;240;24096;-77
2023/06/02 08:53:50;;;;;;;0.70;0.70;;;34.30;35.00;33.00;100844;;;;589020;240;23046;-78
2023/06/02 08:56:18;;;;;;;3.92;0.80;;;34.10;35.30;33.10;100834;;;;589296;240;23058;-77
2023/06/02 08:58:46;;;;;;;4.45;1.08;;;34.10;35.20;32.70;100859;;;;589033;240;23058;-80
2023/06/02 09:01:14;;;;;;;5.30;1.00;;;33.90;35.10;32.90;100851;;;;589124;240;23060;-77
2023/06/02 09:03:42;;;;;;;4.90;0.80;;;33.90;35.40;33.40;100849;;;;589203;240;23078;-75
2023/06/02 09:06:25;;;;;;;2.92;0.90;;;34.30;34.90;33.90;100861;;;;588976;240;23023;-76
2023/06/02 09:08:56;;;;;;;1.67;0.82;;;34.80;34.00;34.30;100859;;;;588735;240;23057;-76
2023/06/02 09:11:24;;;;;;;2.35;0.60;;;35.20;33.70;34.50;100857;;;;588458;240;24089;-77
2023/06/02 09:13:52;;;;;;;2.65;0.90;;;35.60;33.70;34.30;100866;;;;588917;240;23075;-78
2023/06/02 09:16:20;;;;;;;2.42;0.60;;;35.50;34.10;34.30;100874;;;;588632;240;23043;-81
2023/06/02 09:18:57;;;;;;;2.80;0.68;;;35.50;34.10;33.80;100867;;;;588542;240;23032;-79
2023/06/02 09:21:26;;;;;;;2.72;0.70;;;34.60;34.30;33.20;100868;;;;587808;240;24079;-76
2023/06/02 09:23:52;;;;;;;1.52;1.05;;;34.50;34.70;33.40;100870;;;;588425;240;23054;-78
2023/06/02 09:26:30;;;;;;;1.52;0.93;;;34.60;34.80;33.60;100881;;;;588628;240;23035;-77
2023/06/02 09:29:07;;;;;;;2.92;0.80;;;34.90;34.20;33.90;100883;;;;587991;240;23056;-77
2023/06/02 09:31:54;;;;;;;7.32;1.00;;;34.90;34.10;33.90;100889;;;;588505;240;24060;-77
2023/06/02 09:34:21;;;;;;;2.65;1.15;;;35.00;35.30;33.80;100874;;;;588369;240;23080;-81
2023/06/02 09:36:52;;;;;;;5.00;1.02;;;35.00;35.30;32.30;100896;;;;588859;240;23061;-79
2023/06/02 09:39:41;;;;;;;3.78;0.90;;;32.80;37.80;31.10;100903;;;;588618;240;24089;-78
2023/06/02 09:42:07;;;;;;;1.45;0.73;;;32.70;37.20;31.40;100883;;;;588637;240;23049;-75
2023/06/02 09:44:39;;;;;;;3.80;0.98;;;32.70;37.50;30.70;100887;;;;588077;240;23065;-76
2023/06/02 09:47:03;;;;;;;3.42;0.95;;;32.00;38.10;30.70;100907;;;;584300;241;23128;-75
2023/06/02 09:49:43;;;;;;;2.75;0.70;;;31.90;38.80;31.50;100884;;;;587952;240;23093;-75
2023/06/02 09:52:16;;;;;;;8.75;0.90;;;32.30;38.40;31.10;100901;;;;593631;239;23045;-76
2023/06/02 09:54:50;;;;;;;3.17;0.90;;;32.40;37.90;30.80;100910;;;;585214;239;23065;-75
2023/06/02 09:57:15;;;;;;;0.90;0.73;;;32.00;37.90;29.80;100898;;;;588418;240;23053;-75
2023/06/02 09:59:47;;;;;;;2.10;0.68;;;31.20;38.70;29.00;100904;;;;589369;240;23058;-75
2023/06/02 10:02:14;;;;;;;3.40;0.60;;;30.50;39.30;28.70;100909;;;;584850;240;24072;-76
2023/06/02 10:04:39;;;;;;;5.45;1.67;;;30.10;40.30;28.30;100904;;;;588854;240;23104;-74
2023/06/02 10:07:43;;;;;;;2.80;0.75;;;29.60;40.40;28.40;100907;;;;589044;240;23049;-75
2023/06/02 10:10:14;;;;;;;2.53;0.95;;;29.60;40.30;28.30;100917;;;;588359;240;23043;-76
2023/06/02 10:12:50;;;;;;;2.12;0.75;;;29.60;40.90;27.40;100915;;;;588358;240;23035;-77
2023/06/02 10:15:46;;;;;;;3.92;1.20;;;28.70;41.60;27.70;100944;;;;588025;240;23049;-74
2023/06/02 10:18:17;;;;;;;1.62;0.93;;;28.70;41.60;26.80;100907;;;;588125;240;24028;-76
2023/06/02 10:20:54;;;;;;;2.65;1.08;;;28.10;41.70;26.70;100916;;;;588051;240;23053;-75
2023/06/02 10:23:58;;;;;;;3.50;1.15;;;27.90;42.10;26.80;100917;;;;587808;240;24079;-77
2023/06/02 10:27:09;;;;;;;1.48;0.80;;;27.90;41.80;26.90;100926;;;;587814;240;24036;-79
2023/06/02 10:29:37;;;;;;;4.72;1.37;;;27.90;42.20;26.50;100927;;;;588290;240;23048;-80
2023/06/02 10:32:27;;;;;;;0.77;0.70;;;27.70;42.10;26.00;100912;;;;588275;240;25193;-81
2023/06/02 10:35:00;;;;;;;1.90;1.13;;;27.40;42.50;24.90;100930;;;;588710;240;24086;-77
2023/06/02 10:37:26;;;;;;;3.33;1.53;;;25.20;44.70;23.60;100932;;;;587722;240;23063;-78
2023/06/02 10:40:01;;;;;;;2.70;0.80;;;23.60;47.20;22.30;100927;;;;588478;240;24081;-75
2023/06/02 10:42:35;;;;;;;1.73;0.90;;;23.50;47.20;21.20;100928;;;;587792;240;24024;-79
2023/06/02 10:44:54;;;;;;;5.13;1.27;;;22.20;50.10;20.50;100928;;;;586855;240;24073;-79
2023/06/02 10:47:21;;;;;;;2.90;0.83;;;21.10;52.10;19.40;100926;;;;588719;239;24045;-80
2023/06/02 10:49:56;;;;;;;5.60;1.00;;;20.00;53.50;18.50;100916;;;;588523;240;23057;-80
2023/06/02 10:52:23;;;;;;;3.70;1.00;;;19.10;56.00;18.00;100930;;;;588330;240;24072;-77
2023/06/02 10:55:12;;;;;;;1.80;1.00;;;18.40;57.20;17.30;100930;;;;588484;240;25116;-77
2023/06/02 10:58:02;;;;;;;2.10;0.87;;;17.00;59.40;16.50;100924;;;;588631;240;24038;-75
2023/06/02 11:00:43;;;;;;;3.33;1.10;;;16.30;61.50;15.70;100930;;;;588228;240;24028;-75
2023/06/02 11:03:14;;;;;;;3.00;1.10;;;15.70;63.50;15.20;100925;;;;588494;239;24067;-76
2023/06/02 11:05:42;;;;;;;3.20;0.53;;;15.30;65.90;14.80;100928;;;;587829;239;24176;-76
2023/06/02 11:08:11;;;;;;;0.93;0.40;;;14.90;65.90;14.50;100927;;;;588882;240;24130;-74
2023/06/02 11:10:49;;;;;;;0.60;0.60;;;15.00;65.90;14.30;100941;;;;589152;240;24038;-74
2023/06/02 11:13:13;;;;;;;6.10;1.07;;;14.60;67.80;14.20;100953;;;;587603;240;24033;-73
2023/06/02 11:16:00;;;;;;;7.47;2.37;;;14.50;68.40;14.00;100936;;;;588761;240;24091;-76
2023/06/02 11:18:33;;;;;;;1.53;0.70;;;14.30;68.80;13.90;100942;;;;586362;240;24035;-75
2023/06/02 11:21:04;;;;;;;0.83;0.83;;;14.30;70.20;13.70;100935;;;;588731;240;24037;-74
2023/06/02 11:23:32;;;;;;;4.10;1.23;;;14.20;70.40;13.60;100933;;;;586996;240;24076;-75
2023/06/02 11:26:06;;;;;;;7.33;1.27;;;14.10;70.00;13.60;100945;;;;588257;240;24044;-73